Terminal Aerodrome Forecast
Issued by NWS Shreveport, LA

Home | Current Version | Previous Version | Text Only | Print | Product List | Glossary On
Versions: 1 2 3 4 5 6 7 8 9 10 11 12 13 14 15 16 17 18 19 20 21
000
FTUS44 KSHV 040500
TAFMLU
TAF
KMLU 040525Z 0406/0506 18008KT P6SM SCT080
     FM040900 19007KT 4SM BR BKN010
      TEMPO 0411/0415 1SM -DZ BR OVC002
     FM041500 20008KT P6SM VCTS OVC020CB
      TEMPO 0416/0420 1SM +TSRA BR OVC010CB
     FM042000 01016G28KT P6SM -RA OVC008=

USA.gov is the U.S. government's official web portal to all federal, state and local government web resources and services.